Terminal Aerodrome Forecast
Issued by NWS El Paso, TX

Home | Current Version | Previous Version | Text Only | Print | Product List | Glossary On
Versions: 1 2 3 4 5 6 7 8 9 10 11 12 13
040
FTUS44 KEPZ 301721
TAFELP
TAF
KELP 301721Z 3018/3118 23011KT P6SM FEW200
     FM302000 25018G28KT P6SM FEW250
     FM310300 23014KT P6SM FEW250
     FM311600 24020G30KT P6SM SCT250=

USA.gov is the U.S. government's official web portal to all federal, state and local government web resources and services.